sensor_id;sensor_type;location;lat;lon;timestamp;P1;durP1;ratioP1;P2;durP2;ratioP2
7831;SDS011;3961;42.058;25.586;2023-04-03T00:01:08;7.13;;;3.60;;
7831;SDS011;3961;42.058;25.586;2023-04-03T00:03:34;6.87;;;3.27;;
7831;SDS011;3961;42.058;25.586;2023-04-03T00:06:02;5.47;;;3.30;;
7831;SDS011;3961;42.058;25.586;2023-04-03T00:08:28;7.93;;;3.47;;
7831;SDS011;3961;42.058;25.586;2023-04-03T00:10:56;7.40;;;3.77;;
7831;SDS011;3961;42.058;25.586;2023-04-03T00:13:22;7.37;;;3.73;;
7831;SDS011;3961;42.058;25.586;2023-04-03T00:15:48;7.87;;;3.27;;
7831;SDS011;3961;42.058;25.586;2023-04-03T00:18:14;6.37;;;3.73;;
7831;SDS011;3961;42.058;25.586;2023-04-03T00:20:40;4.83;;;3.60;;
7831;SDS011;3961;42.058;25.586;2023-04-03T00:23:05;4.90;;;3.43;;
7831;SDS011;3961;42.058;25.586;2023-04-03T00:25:31;6.50;;;3.23;;
7831;SDS011;3961;42.058;25.586;2023-04-03T00:27:57;6.70;;;3.03;;
7831;SDS011;3961;42.058;25.586;2023-04-03T00:30:22;5.57;;;3.30;;
7831;SDS011;3961;42.058;25.586;2023-04-03T00:32:49;4.90;;;3.20;;
7831;SDS011;3961;42.058;25.586;2023-04-03T00:35:15;5.57;;;3.50;;
7831;SDS011;3961;42.058;25.586;2023-04-03T00:37:42;3.13;;;2.70;;
7831;SDS011;3961;42.058;25.586;2023-04-03T00:40:08;9.43;;;3.30;;
7831;SDS011;3961;42.058;25.586;2023-04-03T00:42:35;5.60;;;3.47;;
7831;SDS011;3961;42.058;25.586;2023-04-03T00:47:27;4.93;;;3.07;;
7831;SDS011;3961;42.058;25.586;2023-04-03T00:49:55;5.63;;;3.27;;
7831;SDS011;3961;42.058;25.586;2023-04-03T00:52:23;4.90;;;3.17;;
7831;SDS011;3961;42.058;25.586;2023-04-03T00:54:54;10.27;;;3.30;;
7831;SDS011;3961;42.058;25.586;2023-04-03T00:57:23;7.90;;;3.17;;
7831;SDS011;3961;42.058;25.586;2023-04-03T00:59:50;6.10;;;3.57;;
7831;SDS011;3961;42.058;25.586;2023-04-03T01:02:20;4.43;;;3.10;;
7831;SDS011;3961;42.058;25.586;2023-04-03T01:04:46;6.33;;;2.80;;
7831;SDS011;3961;42.058;25.586;2023-04-03T01:07:14;4.53;;;3.20;;
7831;SDS011;3961;42.058;25.586;2023-04-03T01:09:42;4.03;;;3.00;;
7831;SDS011;3961;42.058;25.586;2023-04-03T01:12:28;6.23;;;3.00;;
7831;SDS011;3961;42.058;25.586;2023-04-03T01:15:01;5.43;;;3.30;;
7831;SDS011;3961;42.058;25.586;2023-04-03T01:17:31;8.67;;;3.73;;
7831;SDS011;3961;42.058;25.586;2023-04-03T01:22:52;5.60;;;2.93;;
7831;SDS011;3961;42.058;25.586;2023-04-03T01:25:18;5.13;;;3.10;;
7831;SDS011;3961;42.058;25.586;2023-04-03T01:27:44;5.40;;;3.20;;
7831;SDS011;3961;42.058;25.586;2023-04-03T01:30:10;7.10;;;3.30;;
7831;SDS011;3961;42.058;25.586;2023-04-03T01:32:38;5.70;;;3.50;;
7831;SDS011;3961;42.058;25.586;2023-04-03T01:35:03;4.73;;;3.77;;
7831;SDS011;3961;42.058;25.586;2023-04-03T01:37:29;4.43;;;3.60;;
7831;SDS011;3961;42.058;25.586;2023-04-03T01:39:54;4.10;;;3.30;;
7831;SDS011;3961;42.058;25.586;2023-04-03T01:42:20;5.73;;;3.53;;
7831;SDS011;3961;42.058;25.586;2023-04-03T01:44:45;5.80;;;3.20;;
7831;SDS011;3961;42.058;25.586;2023-04-03T01:47:11;6.60;;;3.37;;
7831;SDS011;3961;42.058;25.586;2023-04-03T01:49:37;5.73;;;3.30;;
7831;SDS011;3961;42.058;25.586;2023-04-03T01:52:02;8.30;;;3.33;;
7831;SDS011;3961;42.058;25.586;2023-04-03T01:54:28;5.23;;;3.77;;
7831;SDS011;3961;42.058;25.586;2023-04-03T01:56:53;9.50;;;3.90;;
7831;SDS011;3961;42.058;25.586;2023-04-03T01:59:19;6.80;;;3.80;;
7831;SDS011;3961;42.058;25.586;2023-04-03T02:01:44;5.97;;;3.43;;
7831;SDS011;3961;42.058;25.586;2023-04-03T02:04:11;5.20;;;3.50;;
7831;SDS011;3961;42.058;25.586;2023-04-03T02:06:37;7.17;;;3.83;;
7831;SDS011;3961;42.058;25.586;2023-04-03T02:09:03;4.73;;;3.43;;
7831;SDS011;3961;42.058;25.586;2023-04-03T02:11:29;6.20;;;3.80;;
7831;SDS011;3961;42.058;25.586;2023-04-03T02:13:55;9.33;;;3.90;;
7831;SDS011;3961;42.058;25.586;2023-04-03T02:16:20;5.53;;;3.33;;
7831;SDS011;3961;42.058;25.586;2023-04-03T02:18:46;15.90;;;4.13;;
7831;SDS011;3961;42.058;25.586;2023-04-03T02:21:11;6.97;;;3.80;;
7831;SDS011;3961;42.058;25.586;2023-04-03T02:23:37;6.20;;;3.60;;
7831;SDS011;3961;42.058;25.586;2023-04-03T02:26:04;5.63;;;3.73;;
7831;SDS011;3961;42.058;25.586;2023-04-03T02:28:34;7.07;;;3.83;;
7831;SDS011;3961;42.058;25.586;2023-04-03T02:31:00;8.03;;;3.60;;
7831;SDS011;3961;42.058;25.586;2023-04-03T02:33:25;8.93;;;3.37;;
7831;SDS011;3961;42.058;25.586;2023-04-03T02:35:54;8.93;;;3.77;;
7831;SDS011;3961;42.058;25.586;2023-04-03T02:38:21;9.73;;;4.40;;
7831;SDS011;3961;42.058;25.586;2023-04-03T02:40:47;13.63;;;4.30;;
7831;SDS011;3961;42.058;25.586;2023-04-03T02:43:13;8.83;;;3.63;;
7831;SDS011;3961;42.058;25.586;2023-04-03T02:45:38;9.63;;;3.87;;
7831;SDS011;3961;42.058;25.586;2023-04-03T02:48:04;5.30;;;3.73;;
7831;SDS011;3961;42.058;25.586;2023-04-03T02:50:29;6.90;;;3.40;;
7831;SDS011;3961;42.058;25.586;2023-04-03T02:52:55;6.10;;;3.50;;
7831;SDS011;3961;42.058;25.586;2023-04-03T02:55:20;5.67;;;3.20;;
7831;SDS011;3961;42.058;25.586;2023-04-03T02:57:46;8.63;;;3.43;;
7831;SDS011;3961;42.058;25.586;2023-04-03T03:00:12;9.20;;;3.53;;
7831;SDS011;3961;42.058;25.586;2023-04-03T03:02:38;6.00;;;3.53;;
7831;SDS011;3961;42.058;25.586;2023-04-03T03:05:03;4.43;;;3.30;;
7831;SDS011;3961;42.058;25.586;2023-04-03T03:07:29;5.30;;;3.30;;
7831;SDS011;3961;42.058;25.586;2023-04-03T03:09:55;9.97;;;4.47;;
7831;SDS011;3961;42.058;25.586;2023-04-03T03:12:20;9.73;;;4.20;;
7831;SDS011;3961;42.058;25.586;2023-04-03T03:14:47;5.97;;;3.57;;
7831;SDS011;3961;42.058;25.586;2023-04-03T03:17:13;9.87;;;3.57;;
7831;SDS011;3961;42.058;25.586;2023-04-03T03:19:39;6.23;;;3.00;;
7831;SDS011;3961;42.058;25.586;2023-04-03T03:22:04;7.53;;;4.13;;
7831;SDS011;3961;42.058;25.586;2023-04-03T03:24:30;6.60;;;3.47;;
7831;SDS011;3961;42.058;25.586;2023-04-03T03:26:55;6.63;;;4.07;;
7831;SDS011;3961;42.058;25.586;2023-04-03T03:29:21;9.07;;;3.90;;
7831;SDS011;3961;42.058;25.586;2023-04-03T03:31:46;9.20;;;4.63;;
7831;SDS011;3961;42.058;25.586;2023-04-03T03:34:12;8.50;;;4.00;;
7831;SDS011;3961;42.058;25.586;2023-04-03T03:36:38;6.27;;;3.30;;
7831;SDS011;3961;42.058;25.586;2023-04-03T03:39:03;8.00;;;3.70;;
7831;SDS011;3961;42.058;25.586;2023-04-03T03:41:29;8.67;;;4.17;;
7831;SDS011;3961;42.058;25.586;2023-04-03T03:43:55;11.33;;;3.90;;
7831;SDS011;3961;42.058;25.586;2023-04-03T03:46:20;7.53;;;3.70;;
7831;SDS011;3961;42.058;25.586;2023-04-03T03:48:46;8.37;;;4.20;;
7831;SDS011;3961;42.058;25.586;2023-04-03T03:51:11;10.47;;;4.93;;
7831;SDS011;3961;42.058;25.586;2023-04-03T03:53:37;7.10;;;4.53;;
7831;SDS011;3961;42.058;25.586;2023-04-03T03:56:03;8.50;;;4.20;;
7831;SDS011;3961;42.058;25.586;2023-04-03T03:58:29;8.97;;;4.83;;
7831;SDS011;3961;42.058;25.586;2023-04-03T04:00:54;15.53;;;4.73;;
7831;SDS011;3961;42.058;25.586;2023-04-03T04:03:20;16.97;;;4.77;;
7831;SDS011;3961;42.058;25.586;2023-04-03T04:05:46;15.50;;;4.47;;
7831;SDS011;3961;42.058;25.586;2023-04-03T04:08:12;12.37;;;4.60;;
7831;SDS011;3961;42.058;25.586;2023-04-03T04:10:37;27.83;;;6.20;;
7831;SDS011;3961;42.058;25.586;2023-04-03T04:13:03;21.70;;;5.87;;
7831;SDS011;3961;42.058;25.586;2023-04-03T04:15:29;38.57;;;6.80;;
7831;SDS011;3961;42.058;25.586;2023-04-03T04:17:54;28.00;;;5.20;;
7831;SDS011;3961;42.058;25.586;2023-04-03T04:20:20;20.73;;;5.20;;
7831;SDS011;3961;42.058;25.586;2023-04-03T04:22:46;27.57;;;5.60;;
7831;SDS011;3961;42.058;25.586;2023-04-03T04:25:11;17.20;;;5.47;;
7831;SDS011;3961;42.058;25.586;2023-04-03T04:27:37;25.37;;;5.53;;
7831;SDS011;3961;42.058;25.586;2023-04-03T04:30:03;28.77;;;6.20;;
7831;SDS011;3961;42.058;25.586;2023-04-03T04:32:29;43.33;;;7.47;;
7831;SDS011;3961;42.058;25.586;2023-04-03T04:34:55;41.80;;;7.23;;
7831;SDS011;3961;42.058;25.586;2023-04-03T04:37:20;41.90;;;7.00;;
7831;SDS011;3961;42.058;25.586;2023-04-03T04:39:46;38.23;;;6.73;;
7831;SDS011;3961;42.058;25.586;2023-04-03T04:42:11;39.43;;;6.80;;
7831;SDS011;3961;42.058;25.586;2023-04-03T04:44:38;37.40;;;6.43;;
7831;SDS011;3961;42.058;25.586;2023-04-03T04:47:04;29.63;;;6.60;;
7831;SDS011;3961;42.058;25.586;2023-04-03T04:49:30;16.30;;;5.93;;
7831;SDS011;3961;42.058;25.586;2023-04-03T04:51:56;23.43;;;7.10;;
7831;SDS011;3961;42.058;25.586;2023-04-03T04:54:21;8.53;;;4.90;;
7831;SDS011;3961;42.058;25.586;2023-04-03T04:56:47;12.13;;;5.13;;
7831;SDS011;3961;42.058;25.586;2023-04-03T04:59:12;9.17;;;5.30;;
7831;SDS011;3961;42.058;25.586;2023-04-03T05:01:38;14.20;;;4.37;;
7831;SDS011;3961;42.058;25.586;2023-04-03T05:04:04;8.80;;;4.50;;
7831;SDS011;3961;42.058;25.586;2023-04-03T05:06:29;9.77;;;4.33;;
7831;SDS011;3961;42.058;25.586;2023-04-03T05:08:57;15.50;;;4.50;;
7831;SDS011;3961;42.058;25.586;2023-04-03T05:11:23;9.70;;;4.43;;
7831;SDS011;3961;42.058;25.586;2023-04-03T05:13:49;11.70;;;4.70;;
7831;SDS011;3961;42.058;25.586;2023-04-03T05:16:14;9.83;;;4.73;;
7831;SDS011;3961;42.058;25.586;2023-04-03T05:18:40;6.93;;;4.37;;
7831;SDS011;3961;42.058;25.586;2023-04-03T05:21:05;8.97;;;4.13;;
7831;SDS011;3961;42.058;25.586;2023-04-03T05:23:31;18.37;;;4.53;;
7831;SDS011;3961;42.058;25.586;2023-04-03T05:25:57;9.50;;;4.43;;
7831;SDS011;3961;42.058;25.586;2023-04-03T05:28:22;10.33;;;6.17;;
7831;SDS011;3961;42.058;25.586;2023-04-03T05:30:54;7.57;;;4.80;;
7831;SDS011;3961;42.058;25.586;2023-04-03T05:33:23;11.57;;;4.60;;
7831;SDS011;3961;42.058;25.586;2023-04-03T05:35:49;8.87;;;4.30;;
7831;SDS011;3961;42.058;25.586;2023-04-03T05:38:15;8.20;;;3.87;;
7831;SDS011;3961;42.058;25.586;2023-04-03T05:40:40;12.50;;;4.53;;
7831;SDS011;3961;42.058;25.586;2023-04-03T05:43:06;10.40;;;4.33;;
7831;SDS011;3961;42.058;25.586;2023-04-03T05:45:31;11.77;;;4.60;;
7831;SDS011;3961;42.058;25.586;2023-04-03T05:47:57;13.50;;;5.13;;
7831;SDS011;3961;42.058;25.586;2023-04-03T05:50:22;13.70;;;5.43;;
7831;SDS011;3961;42.058;25.586;2023-04-03T05:52:49;7.67;;;4.20;;
7831;SDS011;3961;42.058;25.586;2023-04-03T05:55:18;8.53;;;4.10;;
7831;SDS011;3961;42.058;25.586;2023-04-03T05:57:44;9.60;;;4.33;;
7831;SDS011;3961;42.058;25.586;2023-04-03T06:00:13;9.03;;;5.60;;
7831;SDS011;3961;42.058;25.586;2023-04-03T06:02:42;9.20;;;4.30;;
7831;SDS011;3961;42.058;25.586;2023-04-03T06:05:08;7.10;;;3.57;;
7831;SDS011;3961;42.058;25.586;2023-04-03T06:07:36;51.30;;;32.47;;
7831;SDS011;3961;42.058;25.586;2023-04-03T06:10:02;14.67;;;10.10;;
7831;SDS011;3961;42.058;25.586;2023-04-03T06:12:28;5.37;;;3.53;;
7831;SDS011;3961;42.058;25.586;2023-04-03T06:14:56;8.70;;;3.50;;
7831;SDS011;3961;42.058;25.586;2023-04-03T06:17:22;8.87;;;3.90;;
7831;SDS011;3961;42.058;25.586;2023-04-03T06:19:48;5.97;;;4.10;;
7831;SDS011;3961;42.058;25.586;2023-04-03T06:22:14;6.10;;;3.73;;
7831;SDS011;3961;42.058;25.586;2023-04-03T06:24:40;9.13;;;4.27;;
7831;SDS011;3961;42.058;25.586;2023-04-03T06:27:06;5.03;;;4.13;;
7831;SDS011;3961;42.058;25.586;2023-04-03T06:29:32;16.33;;;5.77;;
7831;SDS011;3961;42.058;25.586;2023-04-03T06:31:57;22.90;;;5.40;;
7831;SDS011;3961;42.058;25.586;2023-04-03T06:34:23;17.90;;;4.87;;
7831;SDS011;3961;42.058;25.586;2023-04-03T06:36:49;9.27;;;4.07;;
7831;SDS011;3961;42.058;25.586;2023-04-03T06:39:16;10.07;;;4.13;;
7831;SDS011;3961;42.058;25.586;2023-04-03T06:41:46;8.63;;;4.30;;
7831;SDS011;3961;42.058;25.586;2023-04-03T06:44:12;10.87;;;4.20;;
7831;SDS011;3961;42.058;25.586;2023-04-03T06:46:40;10.67;;;3.70;;
7831;SDS011;3961;42.058;25.586;2023-04-03T06:49:06;8.73;;;4.20;;
7831;SDS011;3961;42.058;25.586;2023-04-03T06:51:33;20.67;;;9.60;;
7831;SDS011;3961;42.058;25.586;2023-04-03T06:53:59;15.17;;;4.40;;
7831;SDS011;3961;42.058;25.586;2023-04-03T06:56:26;8.13;;;4.83;;
7831;SDS011;3961;42.058;25.586;2023-04-03T06:58:53;12.93;;;5.27;;
7831;SDS011;3961;42.058;25.586;2023-04-03T07:01:19;8.43;;;4.77;;
7831;SDS011;3961;42.058;25.586;2023-04-03T07:03:46;6.73;;;4.23;;
7831;SDS011;3961;42.058;25.586;2023-04-03T07:06:13;4.97;;;4.20;;
7831;SDS011;3961;42.058;25.586;2023-04-03T07:08:40;12.67;;;5.20;;
7831;SDS011;3961;42.058;25.586;2023-04-03T07:11:07;8.93;;;4.60;;
7831;SDS011;3961;42.058;25.586;2023-04-03T07:13:33;26.10;;;21.00;;
7831;SDS011;3961;42.058;25.586;2023-04-03T07:15:59;8.90;;;4.27;;
7831;SDS011;3961;42.058;25.586;2023-04-03T07:18:25;8.80;;;4.13;;
7831;SDS011;3961;42.058;25.586;2023-04-03T07:20:51;12.50;;;5.23;;
7831;SDS011;3961;42.058;25.586;2023-04-03T07:23:17;12.30;;;4.80;;
7831;SDS011;3961;42.058;25.586;2023-04-03T07:25:46;7.33;;;4.70;;
7831;SDS011;3961;42.058;25.586;2023-04-03T07:28:13;14.80;;;6.83;;
7831;SDS011;3961;42.058;25.586;2023-04-03T07:30:46;10.07;;;5.70;;
7831;SDS011;3961;42.058;25.586;2023-04-03T07:33:13;15.60;;;6.00;;
7831;SDS011;3961;42.058;25.586;2023-04-03T07:35:40;7.83;;;5.00;;
7831;SDS011;3961;42.058;25.586;2023-04-03T07:38:06;11.63;;;5.03;;
7831;SDS011;3961;42.058;25.586;2023-04-03T07:40:32;19.07;;;7.17;;
7831;SDS011;3961;42.058;25.586;2023-04-03T07:42:58;8.50;;;4.90;;
7831;SDS011;3961;42.058;25.586;2023-04-03T07:45:24;6.53;;;4.40;;
7831;SDS011;3961;42.058;25.586;2023-04-03T07:47:50;12.13;;;5.57;;
7831;SDS011;3961;42.058;25.586;2023-04-03T07:50:16;9.53;;;4.77;;
7831;SDS011;3961;42.058;25.586;2023-04-03T07:52:42;15.23;;;6.07;;
7831;SDS011;3961;42.058;25.586;2023-04-03T07:55:08;15.37;;;5.73;;
7831;SDS011;3961;42.058;25.586;2023-04-03T07:57:33;19.73;;;7.57;;
7831;SDS011;3961;42.058;25.586;2023-04-03T07:59:59;18.83;;;10.00;;
7831;SDS011;3961;42.058;25.586;2023-04-03T08:02:24;16.50;;;7.20;;
7831;SDS011;3961;42.058;25.586;2023-04-03T08:04:50;23.07;;;6.90;;
7831;SDS011;3961;42.058;25.586;2023-04-03T08:07:16;24.37;;;9.67;;
7831;SDS011;3961;42.058;25.586;2023-04-03T08:09:41;10.57;;;5.00;;
7831;SDS011;3961;42.058;25.586;2023-04-03T08:12:07;11.03;;;4.70;;
7831;SDS011;3961;42.058;25.586;2023-04-03T08:14:32;6.77;;;3.90;;
7831;SDS011;3961;42.058;25.586;2023-04-03T08:17:01;15.13;;;4.40;;
7831;SDS011;3961;42.058;25.586;2023-04-03T08:19:29;7.93;;;4.63;;
7831;SDS011;3961;42.058;25.586;2023-04-03T08:21:54;13.13;;;5.87;;
7831;SDS011;3961;42.058;25.586;2023-04-03T08:24:20;9.63;;;4.93;;
7831;SDS011;3961;42.058;25.586;2023-04-03T08:26:46;15.67;;;4.93;;
7831;SDS011;3961;42.058;25.586;2023-04-03T08:29:11;13.47;;;5.40;;
7831;SDS011;3961;42.058;25.586;2023-04-03T08:31:36;7.27;;;4.73;;
7831;SDS011;3961;42.058;25.586;2023-04-03T08:34:02;11.27;;;5.30;;
7831;SDS011;3961;42.058;25.586;2023-04-03T08:36:28;7.23;;;4.60;;
7831;SDS011;3961;42.058;25.586;2023-04-03T08:38:55;12.03;;;5.10;;
7831;SDS011;3961;42.058;25.586;2023-04-03T08:41:29;12.80;;;5.23;;
7831;SDS011;3961;42.058;25.586;2023-04-03T08:46:54;12.07;;;4.40;;
7831;SDS011;3961;42.058;25.586;2023-04-03T08:49:45;12.97;;;4.70;;
7831;SDS011;3961;42.058;25.586;2023-04-03T08:55:05;15.83;;;5.67;;
7831;SDS011;3961;42.058;25.586;2023-04-03T08:57:39;27.67;;;7.50;;
7831;SDS011;3961;42.058;25.586;2023-04-03T09:02:43;31.60;;;10.33;;
7831;SDS011;3961;42.058;25.586;2023-04-03T09:05:28;17.57;;;12.00;;
7831;SDS011;3961;42.058;25.586;2023-04-03T09:19:16;12.53;;;5.70;;
7831;SDS011;3961;42.058;25.586;2023-04-03T09:21:58;11.00;;;4.43;;
7831;SDS011;3961;42.058;25.586;2023-04-03T09:24:27;9.33;;;5.20;;
7831;SDS011;3961;42.058;25.586;2023-04-03T09:29:41;15.00;;;6.33;;
7831;SDS011;3961;42.058;25.586;2023-04-03T09:35:17;7.90;;;4.20;;
7831;SDS011;3961;42.058;25.586;2023-04-03T09:37:46;11.53;;;4.87;;
7831;SDS011;3961;42.058;25.586;2023-04-03T09:42:55;15.77;;;5.50;;
7831;SDS011;3961;42.058;25.586;2023-04-03T09:45:27;11.27;;;4.50;;
7831;SDS011;3961;42.058;25.586;2023-04-03T09:48:09;10.23;;;4.83;;
7831;SDS011;3961;42.058;25.586;2023-04-03T09:51:00;9.93;;;4.33;;
7831;SDS011;3961;42.058;25.586;2023-04-03T09:55:51;13.43;;;4.80;;
7831;SDS011;3961;42.058;25.586;2023-04-03T09:58:30;8.43;;;4.10;;
7831;SDS011;3961;42.058;25.586;2023-04-03T10:01:00;13.37;;;5.23;;
7831;SDS011;3961;42.058;25.586;2023-04-03T10:03:30;10.93;;;4.87;;
7831;SDS011;3961;42.058;25.586;2023-04-03T10:05:58;10.67;;;5.73;;
7831;SDS011;3961;42.058;25.586;2023-04-03T10:08:29;16.03;;;7.40;;
7831;SDS011;3961;42.058;25.586;2023-04-03T10:13:52;15.23;;;8.63;;
7831;SDS011;3961;42.058;25.586;2023-04-03T10:16:27;14.07;;;7.60;;
7831;SDS011;3961;42.058;25.586;2023-04-03T10:24:21;13.40;;;6.47;;
7831;SDS011;3961;42.058;25.586;2023-04-03T10:26:57;13.17;;;5.37;;
7831;SDS011;3961;42.058;25.586;2023-04-03T10:29:47;10.20;;;4.93;;
7831;SDS011;3961;42.058;25.586;2023-04-03T10:32:36;15.73;;;5.40;;
7831;SDS011;3961;42.058;25.586;2023-04-03T10:35:32;16.03;;;6.13;;
7831;SDS011;3961;42.058;25.586;2023-04-03T10:46:36;13.67;;;6.33;;
7831;SDS011;3961;42.058;25.586;2023-04-03T10:49:19;13.67;;;6.43;;
7831;SDS011;3961;42.058;25.586;2023-04-03T10:51:48;14.17;;;6.87;;
7831;SDS011;3961;42.058;25.586;2023-04-03T10:56:51;10.60;;;6.93;;
7831;SDS011;3961;42.058;25.586;2023-04-03T10:59:37;17.13;;;8.57;;
7831;SDS011;3961;42.058;25.586;2023-04-03T11:02:23;12.00;;;7.00;;
7831;SDS011;3961;42.058;25.586;2023-04-03T11:04:54;12.57;;;7.43;;
7831;SDS011;3961;42.058;25.586;2023-04-03T11:07:26;12.67;;;6.47;;
7831;SDS011;3961;42.058;25.586;2023-04-03T11:10:00;13.33;;;7.30;;
7831;SDS011;3961;42.058;25.586;2023-04-03T11:12:44;12.30;;;7.33;;
7831;SDS011;3961;42.058;25.586;2023-04-03T11:15:15;18.60;;;8.13;;
7831;SDS011;3961;42.058;25.586;2023-04-03T11:17:46;16.37;;;7.77;;
7831;SDS011;3961;42.058;25.586;2023-04-03T11:20:18;15.17;;;7.90;;
7831;SDS011;3961;42.058;25.586;2023-04-03T11:23:03;14.67;;;8.20;;
7831;SDS011;3961;42.058;25.586;2023-04-03T11:25:32;12.50;;;8.33;;
7831;SDS011;3961;42.058;25.586;2023-04-03T11:28:00;16.37;;;8.77;;
7831;SDS011;3961;42.058;25.586;2023-04-03T11:36:00;33.83;;;21.60;;
7831;SDS011;3961;42.058;25.586;2023-04-03T11:38:30;16.90;;;8.80;;
7831;SDS011;3961;42.058;25.586;2023-04-03T11:41:04;17.33;;;9.70;;
7831;SDS011;3961;42.058;25.586;2023-04-03T11:43:33;20.60;;;11.17;;
7831;SDS011;3961;42.058;25.586;2023-04-03T11:46:05;29.73;;;12.03;;
7831;SDS011;3961;42.058;25.586;2023-04-03T11:53:38;17.67;;;10.47;;
7831;SDS011;3961;42.058;25.586;2023-04-03T12:04:19;23.23;;;13.03;;
7831;SDS011;3961;42.058;25.586;2023-04-03T12:09:25;31.23;;;16.20;;
7831;SDS011;3961;42.058;25.586;2023-04-03T12:11:59;36.40;;;16.50;;
7831;SDS011;3961;42.058;25.586;2023-04-03T12:14:26;24.07;;;12.43;;
7831;SDS011;3961;42.058;25.586;2023-04-03T12:16:54;21.30;;;11.50;;
7831;SDS011;3961;42.058;25.586;2023-04-03T12:24:24;20.93;;;10.97;;
7831;SDS011;3961;42.058;25.586;2023-04-03T12:37:20;22.30;;;11.30;;
7831;SDS011;3961;42.058;25.586;2023-04-03T12:42:56;19.60;;;10.43;;
7831;SDS011;3961;42.058;25.586;2023-04-03T12:45:26;17.77;;;10.33;;
7831;SDS011;3961;42.058;25.586;2023-04-03T12:47:53;17.50;;;9.73;;
7831;SDS011;3961;42.058;25.586;2023-04-03T12:50:24;21.13;;;10.50;;
7831;SDS011;3961;42.058;25.586;2023-04-03T12:53:05;17.00;;;9.97;;
7831;SDS011;3961;42.058;25.586;2023-04-03T12:55:36;18.63;;;9.37;;
7831;SDS011;3961;42.058;25.586;2023-04-03T13:00:58;20.20;;;9.70;;
7831;SDS011;3961;42.058;25.586;2023-04-03T13:03:38;20.20;;;9.40;;
7831;SDS011;3961;42.058;25.586;2023-04-03T13:06:10;17.93;;;9.20;;
7831;SDS011;3961;42.058;25.586;2023-04-03T13:09:00;23.13;;;10.33;;
7831;SDS011;3961;42.058;25.586;2023-04-03T13:11:27;16.07;;;9.23;;
7831;SDS011;3961;42.058;25.586;2023-04-03T13:14:00;15.23;;;9.20;;
7831;SDS011;3961;42.058;25.586;2023-04-03T13:16:31;19.00;;;9.20;;
7831;SDS011;3961;42.058;25.586;2023-04-03T13:18:58;21.87;;;9.50;;
7831;SDS011;3961;42.058;25.586;2023-04-03T13:21:26;21.07;;;9.50;;
7831;SDS011;3961;42.058;25.586;2023-04-03T13:23:57;25.40;;;10.20;;
7831;SDS011;3961;42.058;25.586;2023-04-03T13:26:29;21.43;;;10.07;;
7831;SDS011;3961;42.058;25.586;2023-04-03T13:28:57;19.13;;;9.20;;
7831;SDS011;3961;42.058;25.586;2023-04-03T13:31:36;19.47;;;9.30;;
7831;SDS011;3961;42.058;25.586;2023-04-03T13:34:11;16.93;;;9.43;;
7831;SDS011;3961;42.058;25.586;2023-04-03T13:36:40;14.70;;;8.30;;
7831;SDS011;3961;42.058;25.586;2023-04-03T13:41:36;21.80;;;9.20;;
7831;SDS011;3961;42.058;25.586;2023-04-03T13:49:41;21.43;;;10.07;;
7831;SDS011;3961;42.058;25.586;2023-04-03T13:55:15;22.23;;;9.30;;
7831;SDS011;3961;42.058;25.586;2023-04-03T14:00:36;16.77;;;8.93;;
7831;SDS011;3961;42.058;25.586;2023-04-03T14:03:16;16.20;;;9.43;;
7831;SDS011;3961;42.058;25.586;2023-04-03T14:05:46;16.03;;;9.03;;
7831;SDS011;3961;42.058;25.586;2023-04-03T14:08:11;19.27;;;9.50;;
7831;SDS011;3961;42.058;25.586;2023-04-03T14:10:37;17.03;;;9.23;;
7831;SDS011;3961;42.058;25.586;2023-04-03T14:13:03;19.27;;;8.97;;
7831;SDS011;3961;42.058;25.586;2023-04-03T14:15:30;17.73;;;9.03;;
7831;SDS011;3961;42.058;25.586;2023-04-03T14:17:57;19.23;;;10.67;;
7831;SDS011;3961;42.058;25.586;2023-04-03T14:20:24;16.90;;;10.23;;
7831;SDS011;3961;42.058;25.586;2023-04-03T14:22:52;17.50;;;8.80;;
7831;SDS011;3961;42.058;25.586;2023-04-03T14:25:19;16.13;;;9.27;;
7831;SDS011;3961;42.058;25.586;2023-04-03T14:27:47;14.07;;;9.00;;
7831;SDS011;3961;42.058;25.586;2023-04-03T14:30:25;19.97;;;10.33;;
7831;SDS011;3961;42.058;25.586;2023-04-03T14:32:53;23.83;;;11.70;;
7831;SDS011;3961;42.058;25.586;2023-04-03T14:35:19;20.90;;;11.63;;
7831;SDS011;3961;42.058;25.586;2023-04-03T14:37:46;21.83;;;11.67;;
7831;SDS011;3961;42.058;25.586;2023-04-03T14:40:14;19.33;;;11.83;;
7831;SDS011;3961;42.058;25.586;2023-04-03T14:42:43;23.67;;;12.17;;
7831;SDS011;3961;42.058;25.586;2023-04-03T14:45:10;22.30;;;11.57;;
7831;SDS011;3961;42.058;25.586;2023-04-03T14:47:47;20.97;;;11.20;;
7831;SDS011;3961;42.058;25.586;2023-04-03T14:50:16;24.63;;;12.73;;
7831;SDS011;3961;42.058;25.586;2023-04-03T14:52:43;21.33;;;12.73;;
7831;SDS011;3961;42.058;25.586;2023-04-03T14:55:11;21.67;;;10.90;;
7831;SDS011;3961;42.058;25.586;2023-04-03T14:57:38;21.57;;;12.83;;
7831;SDS011;3961;42.058;25.586;2023-04-03T15:00:04;19.97;;;12.53;;
7831;SDS011;3961;42.058;25.586;2023-04-03T15:02:33;20.53;;;12.07;;
7831;SDS011;3961;42.058;25.586;2023-04-03T15:05:02;19.33;;;11.43;;
7831;SDS011;3961;42.058;25.586;2023-04-03T15:07:32;20.67;;;11.37;;
7831;SDS011;3961;42.058;25.586;2023-04-03T15:10:06;20.87;;;11.77;;
7831;SDS011;3961;42.058;25.586;2023-04-03T15:12:42;20.73;;;11.63;;
7831;SDS011;3961;42.058;25.586;2023-04-03T15:15:08;18.03;;;10.23;;
7831;SDS011;3961;42.058;25.586;2023-04-03T15:17:34;21.93;;;13.00;;
7831;SDS011;3961;42.058;25.586;2023-04-03T15:20:01;21.20;;;12.63;;
7831;SDS011;3961;42.058;25.586;2023-04-03T15:22:27;18.23;;;11.30;;
7831;SDS011;3961;42.058;25.586;2023-04-03T15:24:52;17.90;;;10.73;;
7831;SDS011;3961;42.058;25.586;2023-04-03T15:27:18;24.13;;;11.80;;
7831;SDS011;3961;42.058;25.586;2023-04-03T15:29:43;25.57;;;11.77;;
7831;SDS011;3961;42.058;25.586;2023-04-03T15:32:10;18.73;;;11.27;;
7831;SDS011;3961;42.058;25.586;2023-04-03T15:34:36;17.03;;;11.27;;
7831;SDS011;3961;42.058;25.586;2023-04-03T15:37:03;15.40;;;9.80;;
7831;SDS011;3961;42.058;25.586;2023-04-03T15:39:28;19.13;;;10.70;;
7831;SDS011;3961;42.058;25.586;2023-04-03T15:41:54;19.33;;;11.03;;
7831;SDS011;3961;42.058;25.586;2023-04-03T15:44:20;18.20;;;10.50;;
7831;SDS011;3961;42.058;25.586;2023-04-03T15:46:46;17.00;;;8.73;;
7831;SDS011;3961;42.058;25.586;2023-04-03T15:49:13;18.80;;;9.17;;
7831;SDS011;3961;42.058;25.586;2023-04-03T15:51:39;15.33;;;9.57;;
7831;SDS011;3961;42.058;25.586;2023-04-03T15:54:05;19.20;;;8.83;;
7831;SDS011;3961;42.058;25.586;2023-04-03T15:56:31;20.23;;;8.80;;
7831;SDS011;3961;42.058;25.586;2023-04-03T15:58:56;18.40;;;9.13;;
7831;SDS011;3961;42.058;25.586;2023-04-03T16:01:22;14.90;;;8.60;;
7831;SDS011;3961;42.058;25.586;2023-04-03T16:03:48;13.77;;;8.13;;
7831;SDS011;3961;42.058;25.586;2023-04-03T16:06:14;12.90;;;7.27;;
7831;SDS011;3961;42.058;25.586;2023-04-03T16:08:41;12.67;;;5.90;;
7831;SDS011;3961;42.058;25.586;2023-04-03T16:11:07;19.83;;;6.23;;
7831;SDS011;3961;42.058;25.586;2023-04-03T16:13:33;9.80;;;4.83;;
7831;SDS011;3961;42.058;25.586;2023-04-03T16:15:59;6.27;;;4.27;;
7831;SDS011;3961;42.058;25.586;2023-04-03T16:18:27;6.27;;;3.83;;
7831;SDS011;3961;42.058;25.586;2023-04-03T16:20:53;8.20;;;4.03;;
7831;SDS011;3961;42.058;25.586;2023-04-03T16:23:19;4.23;;;3.00;;
7831;SDS011;3961;42.058;25.586;2023-04-03T16:25:45;4.00;;;3.00;;
7831;SDS011;3961;42.058;25.586;2023-04-03T16:28:12;3.97;;;2.57;;
7831;SDS011;3961;42.058;25.586;2023-04-03T16:30:41;3.73;;;2.90;;
7831;SDS011;3961;42.058;25.586;2023-04-03T16:33:08;8.73;;;2.77;;
7831;SDS011;3961;42.058;25.586;2023-04-03T16:35:35;3.83;;;2.47;;
7831;SDS011;3961;42.058;25.586;2023-04-03T16:38:01;3.40;;;2.60;;
7831;SDS011;3961;42.058;25.586;2023-04-03T16:40:26;6.37;;;2.90;;
7831;SDS011;3961;42.058;25.586;2023-04-03T16:42:52;6.37;;;2.83;;
7831;SDS011;3961;42.058;25.586;2023-04-03T16:45:17;5.50;;;2.67;;
7831;SDS011;3961;42.058;25.586;2023-04-03T16:47:43;4.53;;;2.33;;